createdAt,value
2023-02-28T00:00:26.440Z,2.30
2023-02-28T00:02:53.091Z,2.72
2023-02-28T00:05:25.129Z,3.00
2023-02-28T00:07:52.131Z,2.80
2023-02-28T00:10:24.739Z,2.03
2023-02-28T00:12:53.229Z,2.58
2023-02-28T00:15:20.782Z,3.42
2023-02-28T00:17:47.431Z,2.67
2023-02-28T00:20:14.930Z,3.00
2023-02-28T00:22:47.770Z,2.85
2023-02-28T00:25:17.473Z,2.70
2023-02-28T00:27:44.972Z,3.08
2023-02-28T00:30:15.245Z,2.80
2023-02-28T00:32:42.356Z,3.00
2023-02-28T00:35:09.607Z,2.80
2023-02-28T00:37:36.615Z,3.00
2023-02-28T00:40:05.704Z,2.90
2023-02-28T00:42:32.561Z,2.78
2023-02-28T00:44:59.242Z,2.85
2023-02-28T00:47:25.865Z,2.92
2023-02-28T00:49:52.823Z,2.80
2023-02-28T00:52:19.634Z,2.92
2023-02-28T00:54:46.293Z,3.15
2023-02-28T00:57:12.943Z,3.00
2023-02-28T00:59:39.606Z,3.17
2023-02-28T01:02:06.284Z,2.55
2023-02-28T01:04:32.998Z,2.75
2023-02-28T01:06:59.890Z,3.13
2023-02-28T01:09:26.779Z,2.95
2023-02-28T01:11:53.441Z,2.80
2023-02-28T01:14:20.110Z,3.40
2023-02-28T01:16:47.870Z,3.40
2023-02-28T01:19:14.617Z,2.90
2023-02-28T01:21:41.309Z,3.03
2023-02-28T01:24:08.353Z,3.25
2023-02-28T01:26:35.289Z,2.90
2023-02-28T01:29:01.937Z,3.05
2023-02-28T01:31:29.004Z,2.58
2023-02-28T01:33:55.891Z,3.05
2023-02-28T01:36:25.080Z,3.40
2023-02-28T01:38:52.011Z,3.20
2023-02-28T01:41:21.566Z,3.03
2023-02-28T01:43:48.201Z,3.47
2023-02-28T01:46:16.074Z,3.30
2023-02-28T01:48:52.684Z,3.25
2023-02-28T01:51:32.510Z,3.08
2023-02-28T01:54:07.817Z,3.15
2023-02-28T01:56:37.197Z,2.90
2023-02-28T01:59:04.838Z,3.45
2023-02-28T02:01:32.601Z,3.80
2023-02-28T02:04:03.156Z,3.63
2023-02-28T02:06:36.815Z,2.92
2023-02-28T02:09:03.970Z,3.05
2023-02-28T02:11:31.572Z,3.30
2023-02-28T02:14:28.285Z,3.20
2023-02-28T02:17:29.254Z,3.30
2023-02-28T02:20:17.252Z,2.97
2023-02-28T02:23:15.771Z,3.40
2023-02-28T02:26:14.444Z,3.25
2023-02-28T02:29:18.924Z,3.22
2023-02-28T02:32:03.881Z,3.53
2023-02-28T02:34:41.985Z,3.78
2023-02-28T02:37:32.344Z,3.92
2023-02-28T02:40:12.334Z,3.72
2023-02-28T02:43:03.442Z,3.58
2023-02-28T02:45:58.353Z,3.65
2023-02-28T02:48:31.910Z,3.70
2023-02-28T02:51:02.992Z,3.70
2023-02-28T02:53:38.587Z,4.03
2023-02-28T02:56:07.867Z,4.07
2023-02-28T02:58:43.141Z,3.70
2023-02-28T03:01:15.579Z,3.40
2023-02-28T03:03:43.081Z,3.55
2023-02-28T03:06:09.985Z,3.95
2023-02-28T03:08:39.021Z,4.28
2023-02-28T03:11:13.251Z,4.13
2023-02-28T03:13:58.684Z,4.20
2023-02-28T03:17:19.312Z,4.75
2023-02-28T03:20:08.346Z,4.68
2023-02-28T03:22:42.856Z,4.38
2023-02-28T03:25:40.496Z,4.20
2023-02-28T03:28:40.203Z,4.88
2023-02-28T03:31:38.967Z,4.78
2023-02-28T03:34:43.003Z,5.22
2023-02-28T03:37:16.026Z,4.40
2023-02-28T03:39:47.467Z,4.70
2023-02-28T03:42:18.593Z,5.13
2023-02-28T03:44:53.223Z,5.35
2023-02-28T03:47:44.238Z,5.40
2023-02-28T03:50:17.026Z,5.50
2023-02-28T03:53:02.182Z,5.47
2023-02-28T03:55:39.474Z,5.70
2023-02-28T03:58:13.581Z,4.93
2023-02-28T04:00:47.384Z,5.90
2023-02-28T04:03:14.543Z,6.18
2023-02-28T04:05:51.458Z,6.43
2023-02-28T04:08:18.535Z,5.75
2023-02-28T04:10:50.254Z,6.68
2023-02-28T04:13:16.886Z,6.22
2023-02-28T04:15:43.630Z,6.70
2023-02-28T04:18:10.291Z,6.22
2023-02-28T04:20:37.259Z,6.28
2023-02-28T04:23:03.920Z,6.88
2023-02-28T04:25:30.571Z,7.45
2023-02-28T04:27:57.278Z,7.30
2023-02-28T04:30:24.012Z,7.28
2023-02-28T04:32:50.709Z,8.10
2023-02-28T04:35:17.515Z,6.80
2023-02-28T04:37:44.126Z,7.95
2023-02-28T04:40:11.430Z,7.20
2023-02-28T04:42:38.159Z,7.50
2023-02-28T04:45:05.162Z,7.72
2023-02-28T04:47:33.187Z,8.98
2023-02-28T04:49:59.982Z,7.72
2023-02-28T04:52:28.373Z,8.25
2023-02-28T04:54:55.042Z,7.93
2023-02-28T04:57:21.750Z,9.15
2023-02-28T04:59:48.505Z,8.40
2023-02-28T05:02:15.329Z,8.27
2023-02-28T05:04:41.995Z,7.30
2023-02-28T05:07:08.743Z,8.20
2023-02-28T05:09:35.658Z,9.18
2023-02-28T05:12:02.408Z,11.65
2023-02-28T05:14:29.089Z,9.63
2023-02-28T05:16:55.750Z,9.52
2023-02-28T05:19:22.536Z,10.23
2023-02-28T05:21:52.221Z,10.50
2023-02-28T05:24:23.633Z,9.00
2023-02-28T05:26:52.922Z,9.25
2023-02-28T05:29:20.153Z,10.00
2023-02-28T05:31:47.548Z,9.98
2023-02-28T05:34:16.555Z,9.98
2023-02-28T05:36:43.625Z,10.45
2023-02-28T05:39:13.528Z,9.63
2023-02-28T05:41:44.009Z,11.05
2023-02-28T05:44:11.315Z,10.73
2023-02-28T05:46:37.988Z,10.23
2023-02-28T05:49:04.787Z,11.43
2023-02-28T05:51:32.033Z,9.63
2023-02-28T05:54:02.582Z,10.15
2023-02-28T05:56:29.672Z,11.25
2023-02-28T05:58:56.632Z,10.77
2023-02-28T06:01:34.373Z,10.82
2023-02-28T06:04:02.333Z,11.10
2023-02-28T06:06:30.451Z,11.35
2023-02-28T06:08:57.741Z,11.18
2023-02-28T06:11:28.504Z,11.43
2023-02-28T06:14:00.631Z,11.57
2023-02-28T06:16:32.827Z,11.85
2023-02-28T06:19:01.464Z,11.10
2023-02-28T06:21:29.212Z,12.35
2023-02-28T06:23:57.189Z,12.15
2023-02-28T06:26:23.930Z,10.90
2023-02-28T06:28:50.602Z,12.63
2023-02-28T06:31:19.300Z,11.80
2023-02-28T06:33:47.419Z,13.40
2023-02-28T06:36:16.002Z,12.60
2023-02-28T06:38:43.590Z,11.73
2023-02-28T06:41:11.114Z,10.98
2023-02-28T06:43:41.000Z,12.23
2023-02-28T06:46:09.592Z,11.32
2023-02-28T06:48:36.780Z,12.50
2023-02-28T06:51:14.284Z,12.25
2023-02-28T06:53:41.540Z,12.07
2023-02-28T06:56:11.656Z,11.35
2023-02-28T06:58:40.162Z,12.15
2023-02-28T07:01:08.656Z,11.52
2023-02-28T07:03:37.041Z,11.15
2023-02-28T07:06:04.994Z,12.05
2023-02-28T07:08:32.731Z,12.43
2023-02-28T07:10:59.577Z,12.40
2023-02-28T07:13:26.269Z,11.05
2023-02-28T07:15:58.156Z,12.00
2023-02-28T07:18:25.659Z,12.10
2023-02-28T07:20:53.120Z,13.45
2023-02-28T07:23:20.186Z,12.40
2023-02-28T07:25:47.139Z,11.73
2023-02-28T07:28:14.935Z,11.93
2023-02-28T07:30:42.152Z,11.80
2023-02-28T07:33:09.563Z,12.35
2023-02-28T07:35:36.291Z,12.10
2023-02-28T07:38:03.927Z,12.25
2023-02-28T07:40:30.809Z,12.05
2023-02-28T07:42:57.557Z,11.85
2023-02-28T07:45:24.270Z,12.13
2023-02-28T07:47:50.913Z,11.75
2023-02-28T07:50:17.778Z,12.65
2023-02-28T07:52:44.720Z,12.68
2023-02-28T07:55:11.694Z,12.40
2023-02-28T07:57:38.753Z,11.88
2023-02-28T08:00:08.496Z,11.32
2023-02-28T08:02:35.215Z,11.50
2023-02-28T08:05:02.309Z,12.38
2023-02-28T08:07:29.171Z,12.05
2023-02-28T08:09:55.900Z,11.63
2023-02-28T08:12:22.534Z,12.05
2023-02-28T08:14:49.307Z,11.77
2023-02-28T08:17:16.066Z,11.73
2023-02-28T08:19:42.750Z,12.60
2023-02-28T08:22:09.448Z,12.18
2023-02-28T08:24:36.090Z,10.95
2023-02-28T08:27:02.827Z,11.95
2023-02-28T08:29:31.131Z,11.88
2023-02-28T08:31:58.158Z,13.27
2023-02-28T08:34:24.860Z,12.82
2023-02-28T08:36:51.527Z,11.98
2023-02-28T08:39:18.945Z,12.60
2023-02-28T08:41:46.889Z,12.48
2023-02-28T08:44:14.688Z,12.05
2023-02-28T08:46:41.372Z,13.77
2023-02-28T08:49:08.467Z,13.07
2023-02-28T08:51:35.160Z,12.32
2023-02-28T08:54:02.451Z,11.40
2023-02-28T08:56:29.850Z,12.68
2023-02-28T08:58:57.904Z,11.65
2023-02-28T09:01:29.973Z,11.57
2023-02-28T09:03:57.755Z,11.15
2023-02-28T09:06:27.541Z,13.05
2023-02-28T09:08:59.278Z,11.07
2023-02-28T09:11:26.371Z,12.68
2023-02-28T09:13:53.155Z,12.20
2023-02-28T09:16:20.216Z,12.50
2023-02-28T09:18:47.049Z,11.80
2023-02-28T09:21:16.225Z,11.23
2023-02-28T09:23:44.292Z,11.85
2023-02-28T09:26:19.179Z,11.52
2023-02-28T09:28:46.580Z,11.95
2023-02-28T09:31:16.491Z,12.02
2023-02-28T09:33:43.501Z,13.05
2023-02-28T09:36:10.312Z,11.55
2023-02-28T09:38:36.999Z,10.93
2023-02-28T09:41:11.511Z,11.80
2023-02-28T09:43:42.926Z,12.85
2023-02-28T09:46:22.612Z,12.55
2023-02-28T09:48:50.358Z,11.93
2023-02-28T09:51:40.863Z,11.95
2023-02-28T09:54:10.504Z,11.70
2023-02-28T09:56:44.479Z,11.73
2023-02-28T09:59:13.910Z,12.82
2023-02-28T10:01:51.729Z,11.70
2023-02-28T10:04:33.208Z,12.25
2023-02-28T10:07:02.388Z,12.55
2023-02-28T10:09:33.639Z,11.70
2023-02-28T10:12:07.884Z,9.95
2023-02-28T10:14:36.263Z,12.02
2023-02-28T10:17:08.389Z,11.00
2023-02-28T10:19:50.322Z,10.70
2023-02-28T10:22:27.129Z,10.32
2023-02-28T10:24:57.542Z,12.05
2023-02-28T10:27:30.820Z,11.02
2023-02-28T10:30:02.960Z,11.18
2023-02-28T10:32:35.453Z,11.10
2023-02-28T10:35:15.841Z,11.82
2023-02-28T10:37:44.632Z,10.63
2023-02-28T10:40:23.187Z,11.00
2023-02-28T10:43:02.045Z,10.23
2023-02-28T10:45:35.722Z,10.45
2023-02-28T10:48:05.968Z,10.82
2023-02-28T10:50:43.238Z,10.90
2023-02-28T10:53:17.265Z,10.52
2023-02-28T10:55:44.334Z,11.20
2023-02-28T10:58:32.084Z,10.15
2023-02-28T11:01:00.153Z,10.20
2023-02-28T11:03:32.722Z,11.35
2023-02-28T11:06:05.017Z,10.77
2023-02-28T11:08:32.082Z,10.55
2023-02-28T11:11:01.722Z,10.55
2023-02-28T11:13:38.930Z,10.43
2023-02-28T11:16:08.481Z,10.88
2023-02-28T11:18:52.757Z,10.98
2023-02-28T11:21:27.012Z,9.45
2023-02-28T11:24:01.908Z,9.48
2023-02-28T11:26:47.300Z,9.45
2023-02-28T11:29:23.164Z,10.82
2023-02-28T11:32:29.978Z,9.55
2023-02-28T11:35:12.520Z,9.27
2023-02-28T11:37:40.476Z,9.48
2023-02-28T11:40:15.328Z,9.95
2023-02-28T11:42:54.400Z,9.55
2023-02-28T11:45:55.410Z,9.07
2023-02-28T11:48:47.441Z,8.38
2023-02-28T11:51:36.398Z,9.13
2023-02-28T11:54:16.198Z,9.13
2023-02-28T11:56:50.822Z,8.98
2023-02-28T11:59:45.526Z,8.45
2023-02-28T12:02:25.386Z,9.25
2023-02-28T12:05:06.633Z,8.30
2023-02-28T12:07:40.518Z,8.90
2023-02-28T12:10:20.030Z,9.10
2023-02-28T12:13:14.548Z,9.20
2023-02-28T12:16:09.613Z,9.20
2023-02-28T12:18:48.325Z,9.25
2023-02-28T12:21:30.356Z,8.20
2023-02-28T12:24:15.899Z,9.50
2023-02-28T12:26:47.610Z,8.60
2023-02-28T12:29:17.731Z,9.88
2023-02-28T12:32:07.427Z,9.27
2023-02-28T12:34:39.055Z,8.85
2023-02-28T12:37:11.567Z,9.20
2023-02-28T12:39:51.148Z,9.13
2023-02-28T12:42:39.599Z,9.40
2023-02-28T12:45:18.106Z,8.40
2023-02-28T12:47:47.145Z,8.55
2023-02-28T12:50:14.256Z,8.48
2023-02-28T12:52:49.797Z,8.30
2023-02-28T12:55:39.165Z,8.68
2023-02-28T12:58:33.344Z,8.82
2023-02-28T13:01:29.029Z,9.57
2023-02-28T13:04:21.850Z,8.93
2023-02-28T13:07:07.338Z,8.32
2023-02-28T13:09:34.399Z,9.05
2023-02-28T13:12:01.346Z,8.63
2023-02-28T13:14:34.170Z,9.32
2023-02-28T13:17:03.557Z,8.98
2023-02-28T13:19:33.283Z,8.18
2023-02-28T13:22:00.591Z,9.10
2023-02-28T13:24:46.687Z,8.93
2023-02-28T13:27:16.099Z,8.60
2023-02-28T13:29:45.852Z,8.80
2023-02-28T13:32:12.500Z,9.38
2023-02-28T13:35:07.679Z,8.67
2023-02-28T13:37:43.932Z,8.53
2023-02-28T13:40:13.331Z,36.63
2023-02-28T13:42:50.738Z,8.93
2023-02-28T13:45:27.669Z,8.47
2023-02-28T13:48:02.668Z,8.00
2023-02-28T13:50:32.260Z,8.00
2023-02-28T13:53:21.181Z,8.70
2023-02-28T13:56:07.990Z,8.35
2023-02-28T13:58:43.575Z,8.73
2023-02-28T14:01:36.353Z,7.60
2023-02-28T14:04:21.146Z,8.60
2023-02-28T14:06:58.583Z,7.77
2023-02-28T14:09:30.874Z,8.57
2023-02-28T14:11:58.841Z,9.10
2023-02-28T14:14:37.716Z,9.60
2023-02-28T14:17:06.684Z,8.75
2023-02-28T14:19:37.608Z,8.63
2023-02-28T14:22:35.094Z,8.32
2023-02-28T14:25:16.574Z,8.82
2023-02-28T14:28:03.890Z,8.90
2023-02-28T14:30:50.863Z,8.13
2023-02-28T14:34:02.201Z,8.20
2023-02-28T14:36:42.464Z,8.88
2023-02-28T14:39:14.902Z,8.18
2023-02-28T14:41:43.712Z,7.82
2023-02-28T14:44:26.387Z,8.60
2023-02-28T14:47:09.787Z,8.20
2023-02-28T14:49:46.629Z,8.60
2023-02-28T14:52:18.572Z,8.10
2023-02-28T14:54:46.441Z,8.85
2023-02-28T14:57:34.949Z,8.82
2023-02-28T15:00:11.652Z,8.65
2023-02-28T15:02:39.795Z,8.10
2023-02-28T15:05:18.325Z,8.30
2023-02-28T15:07:46.893Z,7.88
2023-02-28T15:10:27.900Z,8.40
2023-02-28T15:13:08.344Z,8.35
2023-02-28T15:15:51.535Z,8.55
2023-02-28T15:18:32.421Z,8.35
2023-02-28T15:21:07.202Z,8.82
2023-02-28T15:23:36.031Z,8.55
2023-02-28T15:26:03.333Z,7.60
2023-02-28T15:28:30.866Z,8.95
2023-02-28T15:31:01.241Z,9.43
2023-02-28T15:33:30.581Z,12.85
2023-02-28T15:36:21.864Z,9.55
2023-02-28T15:38:52.506Z,8.95
2023-02-28T15:41:29.794Z,14.25
2023-02-28T15:44:37.954Z,10.13
2023-02-28T15:47:06.034Z,11.30
2023-02-28T15:49:45.369Z,9.50
2023-02-28T15:52:16.970Z,9.63
2023-02-28T15:54:45.670Z,9.50
2023-02-28T15:57:24.582Z,8.95
2023-02-28T15:59:58.553Z,9.57
2023-02-28T16:02:35.445Z,10.48
2023-02-28T16:05:11.525Z,10.60
2023-02-28T16:07:43.755Z,8.82
2023-02-28T16:10:13.106Z,10.52
2023-02-28T16:12:40.871Z,9.45
2023-02-28T16:15:17.816Z,10.57
2023-02-28T16:17:45.718Z,10.90
2023-02-28T16:20:19.786Z,10.68
2023-02-28T16:22:46.669Z,11.70
2023-02-28T16:25:18.009Z,14.25
2023-02-28T16:27:50.344Z,11.75
2023-02-28T16:30:23.059Z,10.77
2023-02-28T16:32:52.545Z,9.82
2023-02-28T16:35:21.082Z,10.35
2023-02-28T16:37:48.387Z,9.65
2023-02-28T16:40:21.911Z,9.68
2023-02-28T16:42:51.699Z,10.68
2023-02-28T16:45:29.442Z,9.20
2023-02-28T16:47:56.539Z,9.50
2023-02-28T16:50:27.173Z,9.98
2023-02-28T16:52:55.371Z,9.20
2023-02-28T16:55:23.549Z,9.73
2023-02-28T16:57:54.636Z,9.85
2023-02-28T17:00:22.074Z,9.60
2023-02-28T17:02:48.919Z,10.38
2023-02-28T17:05:16.023Z,10.73
2023-02-28T17:07:43.350Z,10.18
2023-02-28T17:10:25.764Z,8.55
2023-02-28T17:12:54.990Z,10.75
2023-02-28T17:15:23.407Z,9.55
2023-02-28T17:17:51.546Z,10.18
2023-02-28T17:20:27.630Z,9.73
2023-02-28T17:22:55.125Z,10.75
2023-02-28T17:25:22.622Z,10.45
2023-02-28T17:27:49.589Z,11.15
2023-02-28T17:30:22.223Z,13.48
2023-02-28T17:32:49.924Z,13.70
2023-02-28T17:35:17.546Z,12.52
2023-02-28T17:37:44.202Z,11.90
2023-02-28T17:40:18.964Z,10.05
2023-02-28T17:42:46.011Z,10.35
2023-02-28T17:45:14.710Z,9.73
2023-02-28T17:47:44.035Z,10.90
2023-02-28T17:50:17.043Z,10.57
2023-02-28T17:52:44.163Z,9.48
2023-02-28T17:55:12.104Z,9.90
2023-02-28T17:57:39.057Z,11.25
2023-02-28T18:00:10.571Z,10.95
2023-02-28T18:02:37.310Z,11.35
2023-02-28T18:05:05.458Z,11.48
2023-02-28T18:07:32.339Z,9.27
2023-02-28T18:09:59.081Z,14.20
2023-02-28T18:12:26.432Z,12.10
2023-02-28T18:14:53.099Z,13.07
2023-02-28T18:17:19.743Z,11.60
2023-02-28T18:19:46.562Z,10.52
2023-02-28T18:22:13.285Z,10.32
2023-02-28T18:24:41.591Z,9.82
2023-02-28T18:27:08.272Z,10.90
2023-02-28T18:29:34.920Z,12.65
2023-02-28T18:32:02.414Z,11.90
2023-02-28T18:34:30.598Z,11.25
2023-02-28T18:36:57.714Z,12.38
2023-02-28T18:39:25.018Z,11.00
2023-02-28T18:41:51.683Z,11.90
2023-02-28T18:44:20.881Z,11.48
2023-02-28T18:46:49.149Z,12.20
2023-02-28T18:49:16.185Z,12.27
2023-02-28T18:51:45.222Z,12.32
2023-02-28T18:54:13.956Z,13.18
2023-02-28T18:56:40.683Z,12.75
2023-02-28T18:59:07.347Z,12.40
2023-02-28T19:01:34.695Z,12.35
2023-02-28T19:04:03.765Z,12.82
2023-02-28T19:06:32.359Z,13.90
2023-02-28T19:09:01.889Z,12.40
2023-02-28T19:11:28.888Z,12.68
2023-02-28T19:13:56.516Z,12.68
2023-02-28T19:16:24.072Z,13.65
2023-02-28T19:18:51.217Z,12.60
2023-02-28T19:21:20.043Z,12.85
2023-02-28T19:23:46.755Z,13.40
2023-02-28T19:26:16.605Z,12.75
2023-02-28T19:28:43.785Z,19.30
2023-02-28T19:31:19.370Z,14.25
2023-02-28T19:33:46.267Z,12.35
2023-02-28T19:36:13.821Z,15.10
2023-02-28T19:38:41.269Z,14.00
2023-02-28T19:41:11.596Z,14.25
2023-02-28T19:43:38.354Z,13.98
2023-02-28T19:46:05.765Z,13.23
2023-02-28T19:48:32.956Z,13.85
2023-02-28T19:51:02.514Z,13.35
2023-02-28T19:53:34.144Z,14.45
2023-02-28T19:56:01.253Z,14.05
2023-02-28T19:58:28.167Z,13.85
2023-02-28T20:00:54.918Z,13.45
2023-02-28T20:03:22.238Z,13.52
2023-02-28T20:06:00.700Z,14.13
2023-02-28T20:08:27.673Z,13.80
2023-02-28T20:10:55.625Z,13.30
2023-02-28T20:13:25.883Z,13.35
2023-02-28T20:15:54.978Z,14.20
2023-02-28T20:18:21.635Z,12.90
2023-02-28T20:20:48.275Z,12.30
2023-02-28T20:23:15.195Z,12.60
2023-02-28T20:25:42.349Z,13.40
2023-02-28T20:28:09.196Z,13.32
2023-02-28T20:30:38.247Z,12.20
2023-02-28T20:33:04.995Z,12.60
2023-02-28T20:35:31.758Z,13.65
2023-02-28T20:37:58.461Z,14.00
2023-02-28T20:40:25.597Z,13.18
2023-02-28T20:42:52.483Z,12.95
2023-02-28T20:45:19.164Z,13.23
2023-02-28T20:47:45.842Z,13.05
2023-02-28T20:50:13.512Z,12.98
2023-02-28T20:52:40.237Z,12.77
2023-02-28T20:55:07.430Z,12.07
2023-02-28T20:57:34.184Z,11.93
2023-02-28T21:00:00.968Z,12.93
2023-02-28T21:02:28.249Z,13.13
2023-02-28T21:04:54.960Z,13.75
2023-02-28T21:07:21.766Z,14.15
2023-02-28T21:09:48.395Z,13.02
2023-02-28T21:12:15.136Z,12.90
2023-02-28T21:14:41.849Z,13.80
2023-02-28T21:17:10.351Z,13.35
2023-02-28T21:19:37.196Z,13.23
2023-02-28T21:22:04.086Z,13.15
2023-02-28T21:24:31.658Z,13.70
2023-02-28T21:26:59.673Z,12.82
2023-02-28T21:29:26.724Z,11.90
2023-02-28T21:31:53.709Z,13.55
2023-02-28T21:34:20.868Z,13.27
2023-02-28T21:36:47.650Z,13.48
2023-02-28T21:39:18.962Z,13.15
2023-02-28T21:41:46.109Z,13.40
2023-02-28T21:44:19.270Z,12.95
2023-02-28T21:46:48.356Z,12.90
2023-02-28T21:49:15.779Z,11.88
2023-02-28T21:51:42.965Z,13.43
2023-02-28T21:54:11.013Z,13.38
2023-02-28T21:56:37.929Z,12.25
2023-02-28T21:59:06.992Z,13.82
2023-02-28T22:01:40.431Z,12.50
2023-02-28T22:04:09.209Z,12.55
2023-02-28T22:06:39.340Z,13.90
2023-02-28T22:09:08.620Z,13.80
2023-02-28T22:11:36.880Z,12.55
2023-02-28T22:14:04.045Z,13.70
2023-02-28T22:16:44.208Z,13.00
2023-02-28T22:19:17.278Z,13.07
2023-02-28T22:21:45.665Z,12.80
2023-02-28T22:24:12.710Z,12.82
2023-02-28T22:26:39.445Z,13.75
2023-02-28T22:29:06.252Z,13.02
2023-02-28T22:31:35.320Z,13.02
2023-02-28T22:34:06.298Z,12.13
2023-02-28T22:36:33.953Z,13.25
2023-02-28T22:39:01.320Z,14.30
2023-02-28T22:41:29.007Z,13.50
2023-02-28T22:43:58.649Z,13.73
2023-02-28T22:46:27.032Z,13.30
2023-02-28T22:48:54.016Z,14.05
2023-02-28T22:51:25.909Z,13.65
2023-02-28T22:53:53.843Z,14.45
2023-02-28T22:56:24.723Z,13.50
2023-02-28T22:58:53.394Z,14.45
2023-02-28T23:01:22.013Z,14.05
2023-02-28T23:03:49.201Z,13.60
2023-02-28T23:06:23.064Z,14.07
2023-02-28T23:08:51.922Z,13.43
2023-02-28T23:11:28.733Z,13.43
2023-02-28T23:13:58.808Z,13.07
2023-02-28T23:16:49.431Z,13.98
2023-02-28T23:19:19.580Z,13.68
2023-02-28T23:21:46.735Z,13.65
2023-02-28T23:24:15.804Z,13.80
2023-02-28T23:26:45.438Z,13.60
2023-02-28T23:29:13.651Z,13.80
2023-02-28T23:31:40.428Z,13.70
2023-02-28T23:34:07.472Z,14.55
2023-02-28T23:36:34.322Z,14.75
2023-02-28T23:39:01.106Z,14.40
2023-02-28T23:41:27.969Z,13.55
2023-02-28T23:43:54.775Z,14.30
2023-02-28T23:46:22.335Z,13.43
2023-02-28T23:48:49.491Z,13.55
2023-02-28T23:51:18.541Z,14.63
2023-02-28T23:53:47.393Z,13.70
2023-02-28T23:56:16.514Z,14.25
2023-02-28T23:58:44.511Z,13.55
